Time;durP1;ratioP1;P1;durP2;ratioP2;P2;SDS_P1;SDS_P2;PMS_P1;PMS_P2;Temp;Humidity;BMP_temperature;BMP_pressure;BME280_temperature;BME280_humidity;BME280_pressure;Samples;Min_cycle;Max_cycle;Signal;HPM_P1;HPM_P2
2023/04/29 00:02:25;;;;;;;1.70;1.60;;;;;;;12.27;84.56;98455.09;5136643;27;40886;-78
2023/04/29 00:04:55;;;;;;;1.87;1.77;;;;;;;12.40;85.09;98474.44;5136755;27;42852;-79
2023/04/29 00:07:22;;;;;;;3.87;2.47;;;;;;;12.38;85.19;98470.22;5136798;27;43389;-78
2023/04/29 00:09:50;;;;;;;3.90;2.87;;;;;;;12.35;85.69;98466.00;5137243;27;40649;-79
2023/04/29 00:12:18;;;;;;;3.23;2.93;;;;;;;12.34;86.71;98459.00;5136775;27;41795;-78
2023/04/29 00:14:45;;;;;;;2.93;2.67;;;;;;;12.32;86.07;98466.22;5155483;27;42751;-79
2023/04/29 00:17:13;;;;;;;2.70;2.50;;;;;;;12.29;86.30;98476.22;5136670;27;42373;-77
2023/04/29 00:19:41;;;;;;;3.63;2.53;;;;;;;12.26;86.10;98460.53;5152172;27;42200;-80
2023/04/29 00:22:10;;;;;;;3.03;2.50;;;;;;;12.22;85.98;98470.53;5119196;27;40735;-79
2023/04/29 00:24:38;;;;;;;2.63;2.00;;;;;;;12.19;86.22;98468.13;5136670;27;41534;-78
2023/04/29 00:27:06;;;;;;;2.20;2.00;;;;;;;12.14;85.83;98468.44;5119081;27;41350;-78
2023/04/29 00:29:33;;;;;;;2.30;2.10;;;;;;;12.11;85.77;98471.34;5136567;27;40643;-78
2023/04/29 00:32:01;;;;;;;2.90;2.47;;;;;;;11.81;85.62;98431.16;5119073;27;41785;-78
2023/04/29 00:34:29;;;;;;;2.67;2.23;;;;;;;12.04;86.01;98471.91;5135971;27;42788;-78
2023/04/29 00:36:56;;;;;;;3.27;2.30;;;;;;;12.01;85.94;98472.13;5118123;27;41122;-78
2023/04/29 00:39:25;;;;;;;3.33;2.70;;;;;;;11.92;86.48;98462.22;5119099;27;40507;-77
2023/04/29 00:41:53;;;;;;;2.50;2.30;;;;;;;11.94;85.81;98476.22;5118917;27;41783;-77
2023/04/29 00:44:21;;;;;;;2.70;2.50;;;;;;;11.91;86.01;98473.78;5136631;27;43696;-78
2023/04/29 00:46:49;;;;;;;2.70;2.50;;;;;;;11.78;85.72;98457.91;5119074;27;41430;-79
2023/04/29 00:49:17;;;;;;;2.53;2.20;;;;;;;11.80;85.72;98464.81;5136504;27;41940;-78
2023/04/29 00:51:45;;;;;;;2.50;2.27;;;;;;;11.85;85.91;98470.63;5118841;27;40717;-79
2023/04/29 00:54:13;;;;;;;2.73;1.80;;;;;;;11.80;85.80;98470.13;5118780;27;41735;-79
2023/04/29 00:56:46;;;;;;;1.67;1.57;;;;;;;11.81;85.72;98476.28;5135636;27;42075;-79
2023/04/29 00:59:15;;;;;;;2.27;2.07;;;;;;;11.80;85.70;98478.06;5135945;27;40130;-77
2023/04/29 01:01:43;;;;;;;2.30;2.10;;;;;;;11.81;86.12;98477.13;5118092;27;41677;-79
2023/04/29 01:04:11;;;;;;;2.60;2.40;;;;;;;11.83;85.79;98474.34;5135293;27;42822;-78
2023/04/29 01:06:49;;;;;;;2.57;2.37;;;;;;;11.83;86.00;98483.16;5154503;27;42600;-78
2023/04/29 01:09:29;;;;;;;2.77;2.57;;;;;;;11.75;86.36;98453.69;5119328;27;41052;-80
2023/04/29 01:12:11;;;;;;;3.70;3.40;;;;;;;11.84;86.51;98466.28;5118270;27;41979;-77
2023/04/29 01:14:42;;;;;;;3.47;2.50;;;;;;;11.83;86.52;98475.19;5119021;27;42066;-79
2023/04/29 01:17:12;;;;;;;3.47;2.73;;;;;;;11.83;86.58;98467.25;5118160;27;41168;-78
2023/04/29 01:19:46;;;;;;;2.90;2.27;;;;;;;11.80;86.58;98464.81;5118584;27;39609;-78
2023/04/29 01:22:16;;;;;;;3.20;3.00;;;;;;;11.78;86.74;98461.41;5118174;27;40593;-80
2023/04/29 01:24:45;;;;;;;3.03;2.63;;;;;;;11.73;86.60;98468.84;5135792;27;42651;-78
2023/04/29 01:27:22;;;;;;;3.53;2.90;;;;;;;11.68;87.09;98462.19;5135720;27;42470;-78
2023/04/29 01:29:56;;;;;;;3.47;3.17;;;;;;;11.62;86.84;98460.81;5118604;27;40252;-78
2023/04/29 01:32:32;;;;;;;3.30;3.00;;;;;;;11.61;87.09;98453.00;5135592;27;41816;-79
2023/04/29 01:35:11;;;;;;;3.53;3.23;;;;;;;11.71;87.16;98476.06;5132480;27;42964;-77
2023/04/29 01:37:47;;;;;;;3.60;3.30;;;;;;;11.71;87.52;98480.53;5132318;27;42299;-77
2023/04/29 01:40:22;;;;;;;3.60;3.30;;;;;;;11.69;86.90;98477.97;5118337;27;41393;-79
2023/04/29 01:43:15;;;;;;;3.37;3.07;;;;;;;11.65;87.00;98471.19;5132509;27;42657;-79
2023/04/29 01:45:46;;;;;;;3.50;3.20;;;;;;;11.68;86.92;98481.59;5132953;27;42560;-78
2023/04/29 01:48:17;;;;;;;3.70;3.20;;;;;;;11.71;86.64;98486.69;5135118;27;42339;-78
2023/04/29 01:50:45;;;;;;;3.63;3.33;;;;;;;11.68;86.81;98470.97;5117914;27;40875;-79
2023/04/29 01:53:14;;;;;;;2.47;2.23;;;;;;;11.78;86.81;98482.63;5118029;27;40759;-77
2023/04/29 01:55:43;;;;;;;3.67;3.37;;;;;;;11.80;86.87;98483.38;5117740;27;41864;-78
2023/04/29 01:58:17;;;;;;;3.07;2.70;;;;;;;11.77;86.71;98467.69;5132443;27;42285;-79
2023/04/29 02:00:57;;;;;;;3.23;2.93;;;;;;;11.76;86.77;98452.72;5133084;27;40984;-78
2023/04/29 02:03:25;;;;;;;2.73;2.53;;;;;;;11.85;86.48;98467.97;5117603;27;41138;-78
2023/04/29 02:05:56;;;;;;;2.90;2.60;;;;;;;11.91;86.40;98477.28;5118047;27;42863;-78
2023/04/29 02:08:24;;;;;;;2.77;2.37;;;;;;;11.92;86.47;98488.75;5117778;27;42297;-78
2023/04/29 02:10:55;;;;;;;2.70;2.33;;;;;;;11.88;85.87;98486.31;5117995;27;39546;-79
2023/04/29 02:13:49;;;;;;;2.60;2.40;;;;;;;11.83;86.13;98485.81;5131106;27;40888;-78
2023/04/29 02:16:18;;;;;;;2.23;2.03;;;;;;;11.77;85.75;98488.91;5134812;27;43914;-77
2023/04/29 02:18:56;;;;;;;2.43;2.23;;;;;;;11.73;86.34;98492.72;5134000;27;42367;-78
2023/04/29 02:21:25;;;;;;;3.37;2.70;;;;;;;11.73;86.01;98500.69;5117385;27;40918;-79
2023/04/29 02:23:53;;;;;;;3.43;3.13;;;;;;;11.65;86.08;98465.91;5134983;27;42461;-77
2023/04/29 02:26:25;;;;;;;4.03;2.70;;;;;;;11.78;86.20;98487.09;5117217;27;43126;-78
2023/04/29 02:28:56;;;;;;;2.70;2.50;;;;;;;11.66;86.06;98483.50;5131812;27;42246;-78
2023/04/29 02:31:24;;;;;;;3.17;2.87;;;;;;;11.69;86.61;98496.56;5134765;27;41922;-78
2023/04/29 02:33:51;;;;;;;3.20;2.43;;;;;;;11.61;87.00;98490.97;5117757;27;41654;-77
2023/04/29 02:36:19;;;;;;;2.83;2.63;;;;;;;11.59;86.59;98492.88;5117252;27;42830;-77
2023/04/29 02:38:49;;;;;;;3.10;2.80;;;;;;;11.56;86.98;98493.09;5117242;27;41213;-80
2023/04/29 02:41:17;;;;;;;3.23;3.03;;;;;;;11.53;87.17;98493.31;5134553;27;41555;-79
2023/04/29 02:43:47;;;;;;;3.33;3.00;;;;;;;11.45;87.25;98495.66;5134731;27;41767;-79
2023/04/29 02:46:15;;;;;;;3.33;3.03;;;;;;;11.43;86.67;98493.13;5117093;27;41753;-78
2023/04/29 02:48:43;;;;;;;2.67;2.47;;;;;;;11.42;86.89;98496.72;5117534;27;41062;-77
2023/04/29 02:51:10;;;;;;;2.30;2.10;;;;;;;11.28;86.68;98474.81;5117189;27;39857;-78
2023/04/29 02:53:38;;;;;;;2.47;2.27;;;;;;;11.40;86.51;98495.16;5117567;27;40888;-78
2023/04/29 02:56:06;;;;;;;2.77;2.47;;;;;;;11.38;86.63;98497.91;5152595;27;44366;-79
2023/04/29 02:58:34;;;;;;;2.77;2.57;;;;;;;11.39;86.57;98496.94;5135337;27;42299;-79
2023/04/29 03:01:03;;;;;;;2.30;2.10;;;;;;;11.42;86.52;98495.88;5138140;27;41896;-79
2023/04/29 03:03:31;;;;;;;2.77;2.40;;;;;;;11.45;86.26;98500.97;5120867;27;41745;-78
2023/04/29 03:05:58;;;;;;;3.17;2.90;;;;;;;11.43;86.30;98487.81;5120512;27;42551;-77
2023/04/29 03:08:27;;;;;;;3.80;3.50;;;;;;;11.54;86.10;98492.34;5120548;27;41537;-80
2023/04/29 03:10:54;;;;;;;4.77;3.00;;;;;;;11.58;86.38;98496.47;5120652;27;40997;-79
2023/04/29 03:13:22;;;;;;;3.40;3.10;;;;;;;11.64;86.76;98501.34;5120765;27;40853;-79
2023/04/29 03:15:50;;;;;;;2.93;2.63;;;;;;;11.72;86.16;98498.13;5137922;27;42816;-78
2023/04/29 03:18:19;;;;;;;3.77;3.03;;;;;;;11.78;86.30;98497.72;5120338;27;41168;-80
2023/04/29 03:20:48;;;;;;;3.30;3.00;;;;;;;11.91;87.01;98501.16;5120485;27;41352;-78
2023/04/29 03:23:15;;;;;;;4.90;3.83;;;;;;;12.02;87.38;98495.06;5137961;27;40641;-78
2023/04/29 03:25:43;;;;;;;3.53;3.20;;;;;;;12.09;87.15;98498.97;5120371;27;42042;-77
2023/04/29 03:28:11;;;;;;;3.60;3.30;;;;;;;12.14;87.48;98494.16;5120656;27;41353;-79
2023/04/29 03:30:39;;;;;;;3.00;2.80;;;;;;;12.28;87.58;98498.44;5137695;27;41350;-80
2023/04/29 03:33:07;;;;;;;2.40;2.20;;;;;;;12.37;88.44;98500.38;5137692;27;42733;-79
2023/04/29 03:35:36;;;;;;;3.40;3.10;;;;;;;12.44;88.50;98504.28;5137389;27;43798;-78
2023/04/29 03:38:24;;;;;;;3.80;3.50;;;;;;;12.48;88.38;98500.44;5085625;27;42362;-78
2023/04/29 03:40:54;;;;;;;3.97;3.57;;;;;;;12.41;87.72;98492.06;5137448;27;41755;-78
2023/04/29 03:43:22;;;;;;;4.10;3.23;;;;;;;12.53;87.77;98503.56;5120461;27;41187;-79
2023/04/29 03:45:50;;;;;;;3.97;3.50;;;;;;;12.55;87.34;98506.97;5120128;27;41736;-77
2023/04/29 03:48:20;;;;;;;3.90;3.47;;;;;;;12.57;87.22;98502.38;5120275;27;41681;-80
2023/04/29 03:50:49;;;;;;;3.57;3.10;;;;;;;12.61;86.81;98513.63;5137099;27;40961;-79
2023/04/29 03:53:17;;;;;;;3.30;3.10;;;;;;;12.62;86.67;98500.22;5137355;27;43114;-80
2023/04/29 03:55:45;;;;;;;3.03;2.83;;;;;;;12.61;86.92;98492.38;5119822;27;41782;-79
2023/04/29 03:58:12;;;;;;;2.57;2.37;;;;;;;12.68;86.94;98507.72;5155706;27;42797;-79
2023/04/29 04:00:40;;;;;;;2.70;2.50;;;;;;;12.73;86.78;98508.22;5137353;27;40918;-80
2023/04/29 04:03:13;;;;;;;2.50;2.30;;;;;;;12.69;86.37;98496.13;5134216;27;41906;-78
2023/04/29 04:05:41;;;;;;;3.23;2.80;;;;;;;12.80;86.68;98514.75;5119621;27;41816;-77
2023/04/29 04:08:13;;;;;;;3.13;2.93;;;;;;;12.83;86.50;98511.03;5134104;27;43009;-79
2023/04/29 04:11:02;;;;;;;3.53;3.23;;;;;;;12.85;86.86;98517.06;5153067;27;41340;-79
2023/04/29 04:13:37;;;;;;;4.23;3.80;;;;;;;12.79;87.71;98507.75;5119743;27;40695;-78
2023/04/29 04:16:05;;;;;;;3.73;3.43;;;;;;;12.89;87.86;98518.50;5136779;27;42825;-78
2023/04/29 04:18:33;;;;;;;3.63;3.33;;;;;;;12.94;87.77;98526.97;5119533;27;41128;-79
2023/04/29 04:21:05;;;;;;;3.93;3.63;;;;;;;12.95;87.80;98523.38;5136682;27;41149;-80
2023/04/29 04:23:35;;;;;;;3.93;3.10;;;;;;;12.95;87.58;98512.72;5119576;27;40320;-79
2023/04/29 04:26:04;;;;;;;4.27;3.53;;;;;;;13.05;87.76;98532.31;5119414;27;42117;-78
2023/04/29 04:28:54;;;;;;;4.87;3.57;;;;;;;13.09;87.76;98527.63;5136204;27;42305;-80
2023/04/29 04:31:31;;;;;;;3.73;3.43;;;;;;;13.15;87.70;98543.94;5119358;27;40338;-77
2023/04/29 04:33:59;;;;;;;3.90;3.60;;;;;;;13.01;87.50;98517.56;5136737;27;42032;-78
2023/04/29 04:36:27;;;;;;;3.63;3.33;;;;;;;13.24;87.08;98540.56;5136326;27;43777;-78
2023/04/29 04:38:57;;;;;;;3.30;3.00;;;;;;;13.28;86.89;98544.69;5119687;27;42288;-79
2023/04/29 04:41:24;;;;;;;4.27;3.87;;;;;;;13.30;87.05;98547.22;5136340;27;41140;-80
2023/04/29 04:43:53;;;;;;;4.33;3.87;;;;;;;13.07;86.96;98506.47;5136727;27;41765;-80
2023/04/29 04:46:42;;;;;;;4.87;4.47;;;;;;;13.37;87.06;98547.56;5135474;27;43510;-78
2023/04/29 04:49:15;;;;;;;4.00;3.60;;;;;;;13.44;87.42;98554.13;5133545;27;43153;-79
2023/04/29 04:51:50;;;;;;;3.77;3.47;;;;;;;13.50;87.03;98553.63;5119275;27;40631;-80
2023/04/29 04:54:19;;;;;;;3.47;3.17;;;;;;;13.56;86.82;98561.97;5136467;27;42761;-79
2023/04/29 04:56:51;;;;;;;3.27;2.77;;;;;;;13.58;86.17;98559.19;5135496;27;42715;-78
2023/04/29 04:59:18;;;;;;;3.60;3.30;;;;;;;13.69;86.25;98563.66;5119093;27;41259;-79
2023/04/29 05:01:46;;;;;;;3.60;3.30;;;;;;;13.75;86.03;98572.00;5136304;27;40686;-79
2023/04/29 05:04:15;;;;;;;4.33;3.93;;;;;;;13.68;85.60;98544.19;5136139;27;42681;-81
2023/04/29 05:06:43;;;;;;;3.10;2.90;;;;;;;13.89;85.34;98574.41;5118409;27;42847;-80
2023/04/29 05:09:10;;;;;;;3.23;3.00;;;;;;;13.96;85.55;98575.63;5136190;27;42362;-78
2023/04/29 05:11:40;;;;;;;2.93;2.73;;;;;;;14.03;85.14;98573.28;5136182;27;41853;-78
2023/04/29 05:14:12;;;;;;;3.67;3.37;;;;;;;14.11;84.65;98585.97;5118735;27;42398;-80
2023/04/29 05:16:40;;;;;;;2.70;2.50;;;;;;;14.16;84.50;98583.78;5118822;27;41834;-80
2023/04/29 05:19:08;;;;;;;3.00;2.70;;;;;;;14.23;84.43;98583.16;5118160;27;42217;-78
2023/04/29 05:21:39;;;;;;;3.10;2.90;;;;;;;14.28;84.22;98585.44;5133870;27;40922;-79
2023/04/29 05:24:08;;;;;;;3.77;3.47;;;;;;;14.35;84.36;98586.63;5118690;27;42162;-77
2023/04/29 05:26:37;;;;;;;3.80;3.50;;;;;;;14.35;84.11;98581.31;5118478;27;41634;-78
2023/04/29 05:29:08;;;;;;;3.97;3.57;;;;;;;14.46;84.15;98588.47;5118453;27;41631;-80
2023/04/29 05:31:45;;;;;;;3.80;3.50;;;;;;;14.51;83.82;98594.25;5119023;27;40001;-78
2023/04/29 05:34:13;;;;;;;3.90;3.53;;;;;;;14.52;83.66;98585.28;5118547;27;40767;-80
2023/04/29 05:36:40;;;;;;;3.43;3.13;;;;;;;14.61;83.22;98593.34;5135687;27;42703;-80
2023/04/29 05:39:08;;;;;;;3.77;3.47;;;;;;;14.65;83.09;98608.13;5118350;27;41139;-79
2023/04/29 05:41:35;;;;;;;3.87;3.57;;;;;;;14.71;82.90;98604.13;5135501;27;40912;-78
2023/04/29 05:44:10;;;;;;;7.27;3.70;;;;;;;14.77;82.89;98602.75;5135479;27;40818;-79
2023/04/29 05:46:38;;;;;;;3.80;3.50;;;;;;;14.84;82.77;98609.22;5117885;27;42632;-78
2023/04/29 05:49:05;;;;;;;3.67;3.37;;;;;;;14.88;82.26;98597.34;5118086;27;42255;-80
2023/04/29 05:51:33;;;;;;;3.40;3.20;;;;;;;14.92;81.96;98599.63;5117727;27;40951;-79
2023/04/29 05:54:00;;;;;;;3.30;3.00;;;;;;;15.12;81.72;98613.09;5118386;27;40680;-79
2023/04/29 05:56:31;;;;;;;3.43;3.10;;;;;;;15.23;81.49;98619.22;5135290;27;43860;-80
2023/04/29 05:59:00;;;;;;;3.70;3.40;;;;;;;15.34;81.07;98624.47;5135537;27;42037;-80
2023/04/29 06:01:29;;;;;;;3.27;2.97;;;;;;;15.45;80.91;98627.06;5108690;22;40898;-79
2023/04/29 06:03:58;;;;;;;4.03;3.30;;;;;;;15.51;80.35;98622.19;5053864;28;41538;-76
2023/04/29 06:06:36;;;;;;;3.70;3.40;;;;;;;15.55;80.06;98626.31;5036452;28;42004;-79
2023/04/29 06:09:19;;;;;;;3.00;2.80;;;;;;;15.66;79.84;98628.91;5067823;28;43309;-78
2023/04/29 06:11:47;;;;;;;3.43;3.20;;;;;;;15.78;79.70;98635.84;5035738;28;40014;-79
2023/04/29 06:14:14;;;;;;;3.30;3.00;;;;;;;15.88;79.26;98641.22;5036177;28;40734;-79
2023/04/29 06:16:44;;;;;;;3.53;3.23;;;;;;;16.02;78.79;98646.19;5035756;28;42776;-80
2023/04/29 06:19:11;;;;;;;4.73;4.27;;;;;;;16.05;76.70;98633.44;5069192;28;43019;-80
2023/04/29 06:21:39;;;;;;;3.70;3.40;;;;;;;16.38;76.45;98655.44;5052639;28;40163;-81
2023/04/29 06:24:07;;;;;;;3.73;3.43;;;;;;;16.58;76.44;98659.84;5052847;28;41969;-78
2023/04/29 06:26:35;;;;;;;4.40;3.93;;;;;;;16.66;74.56;98668.06;5035965;28;42285;-79
2023/04/29 06:29:03;;;;;;;4.83;4.33;;;;;;;16.65;73.36;98666.38;5052473;28;41378;-79
2023/04/29 06:31:31;;;;;;;6.50;5.27;;;;;;;16.70;73.48;98655.22;5069027;28;42160;-79
2023/04/29 06:34:04;;;;;;;5.70;4.30;;;;;;;16.81;72.36;98677.34;5052490;28;41740;-80
2023/04/29 06:36:34;;;;;;;4.80;4.40;;;;;;;16.94;72.81;98679.75;5039630;28;42970;-81
2023/04/29 06:39:01;;;;;;;5.13;4.63;;;;;;;17.07;72.13;98687.50;5056535;28;41143;-80
2023/04/29 06:41:51;;;;;;;5.77;5.27;;;;;;;17.18;71.12;98695.41;5038916;28;41146;-81
2023/04/29 06:44:40;;;;;;;5.37;4.93;;;;;;;17.29;70.58;98697.09;5069899;28;42726;-79
2023/04/29 06:47:25;;;;;;;6.07;5.47;;;;;;;17.54;69.79;98707.22;5055870;28;41846;-80
2023/04/29 06:50:08;;;;;;;5.90;5.40;;;;;;;17.80;67.77;98707.47;5039707;28;41273;-80
2023/04/29 06:52:36;;;;;;;5.80;5.20;;;;;;;18.02;67.50;98704.44;5072660;28;41103;-79
2023/04/29 06:55:05;;;;;;;6.60;5.90;;;;;;;18.13;67.51;98708.78;5055983;28;42622;-79
2023/04/29 06:57:33;;;;;;;6.10;5.50;;;;;;;18.13;66.37;98712.28;5055724;28;43474;-79
2023/04/29 07:00:01;;;;;;;6.20;5.70;;;;;;;18.11;66.99;98705.38;5073578;28;42612;-80
2023/04/29 07:02:29;;;;;;;5.90;5.40;;;;;;;18.10;66.05;98709.06;5038673;28;41198;-79
2023/04/29 07:04:56;;;;;;;6.13;5.63;;;;;;;18.27;65.40;98703.78;5055681;28;40859;-79
2023/04/29 07:07:26;;;;;;;6.03;5.53;;;;;;;18.42;62.60;98724.75;5055592;28;43600;-79
2023/04/29 07:09:54;;;;;;;5.90;5.40;;;;;;;18.59;62.13;98732.84;5038799;28;42302;-79
2023/04/29 07:12:22;;;;;;;6.40;5.70;;;;;;;18.70;61.84;98721.06;5038530;28;40879;-80
2023/04/29 07:14:49;;;;;;;5.90;5.40;;;;;;;18.77;61.32;98740.09;5038894;28;41693;-79
2023/04/29 07:17:17;;;;;;;6.50;5.97;;;;;;;18.89;61.00;98742.44;5054981;28;41963;-80
2023/04/29 07:19:46;;;;;;;5.93;5.13;;;;;;;19.09;61.20;98718.13;5039887;28;20242;-80
2023/04/29 07:22:14;;;;;;;4.93;4.53;;;;;;;19.08;59.82;98708.38;5038845;28;40930;-80
2023/04/29 07:24:43;;;;;;;5.70;5.20;;;;;;;19.32;59.13;98748.88;5055631;28;41681;-80
2023/04/29 07:27:11;;;;;;;5.80;5.20;;;;;;;19.52;58.14;98753.16;5071999;28;42834;-78
2023/04/29 07:29:39;;;;;;;4.97;4.57;;;;;;;19.57;57.74;98750.81;5038706;28;42391;-79
2023/04/29 07:32:07;;;;;;;7.13;4.93;;;;;;;19.55;57.40;98768.09;5054998;28;40891;-78
2023/04/29 07:34:36;;;;;;;5.77;5.20;;;;;;;19.52;56.31;98774.63;5055382;28;41978;-78
2023/04/29 07:37:04;;;;;;;4.77;4.37;;;;;;;19.62;56.69;98780.75;5054835;28;41435;-79
2023/04/29 07:39:34;;;;;;;3.73;3.43;;;;;;;20.04;55.86;98772.84;5072034;28;43382;-79
2023/04/29 07:42:04;;;;;;;4.87;4.47;;;;;;;20.74;54.13;98783.53;5038328;28;40263;-79
2023/04/29 07:44:32;;;;;;;5.43;4.67;;;;;;;21.26;52.94;98772.63;5054344;28;42685;-80
2023/04/29 07:47:00;;;;;;;4.77;4.27;;;;;;;22.06;50.70;98792.56;5037726;28;43215;-77
2023/04/29 07:49:27;;;;;;;4.40;4.00;;;;;;;22.95;48.80;98810.41;5054985;28;43217;-80
2023/04/29 07:51:55;;;;;;;4.70;4.30;;;;;;;23.26;47.33;98828.28;5054988;28;40993;-80
2023/04/29 07:54:22;;;;;;;4.13;3.40;;;;;;;23.14;47.57;98827.00;5055025;28;42712;-78
2023/04/29 07:56:50;;;;;;;4.30;3.90;;;;;;;22.99;47.17;98834.19;5038295;28;43024;-79
2023/04/29 07:59:21;;;;;;;4.13;3.73;;;;;;;23.35;44.82;98841.78;5071748;28;43263;-78
2023/04/29 08:01:48;;;;;;;3.63;3.33;;;;;;;23.42;44.65;98850.84;5054711;28;40311;-79
2023/04/29 08:04:16;;;;;;;3.57;3.27;;;;;;;23.49;43.39;98862.66;5054636;28;42002;-79
2023/04/29 08:06:50;;;;;;;4.33;3.93;;;;;;;23.60;43.43;98859.56;5054168;28;42643;-81
2023/04/29 08:09:18;;;;;;;3.50;3.20;;;;;;;23.91;43.44;98857.66;5073196;28;43512;-79
2023/04/29 08:11:46;;;;;;;3.80;3.50;;;;;;;23.73;42.45;98870.66;5038260;28;41331;-82
2023/04/29 08:14:14;;;;;;;3.87;2.97;;;;;;;23.46;42.98;98865.72;5038139;28;40955;-81
2023/04/29 08:16:43;;;;;;;4.23;3.93;;;;;;;23.05;42.99;98874.00;5054620;28;43783;-80
2023/04/29 08:19:10;;;;;;;3.60;3.30;;;;;;;22.81;43.84;98874.06;5038076;28;40978;-79
2023/04/29 08:21:38;;;;;;;3.97;3.57;;;;;;;22.76;45.31;98854.84;5072830;28;41015;-81
2023/04/29 08:24:06;;;;;;;3.37;2.77;;;;;;;22.72;44.71;98854.34;5072934;28;41861;-79
2023/04/29 08:26:33;;;;;;;4.37;3.30;;;;;;;23.05;43.91;98865.88;5071475;28;42759;-79
2023/04/29 08:29:01;;;;;;;4.53;2.93;;;;;;;22.87;43.93;98859.91;5054700;28;43282;-79
2023/04/29 08:31:28;;;;;;;3.33;3.03;;;;;;;23.69;43.64;98874.72;5054160;28;39787;-79
2023/04/29 08:33:57;;;;;;;3.60;3.30;;;;;;;23.74;42.00;98883.13;5072474;28;41826;-81
2023/04/29 08:36:27;;;;;;;3.20;2.90;;;;;;;23.75;42.35;98889.38;5037760;28;42230;-83
2023/04/29 08:38:55;;;;;;;3.30;2.50;;;;;;;23.61;42.13;98893.72;5054302;28;42153;-82
2023/04/29 08:41:24;;;;;;;2.60;2.40;;;;;;;23.61;43.03;98872.06;5054049;28;41017;-82
2023/04/29 08:43:51;;;;;;;3.03;2.73;;;;;;;23.62;41.97;98895.38;5054616;28;42749;-81
2023/04/29 08:46:20;;;;;;;2.60;2.40;;;;;;;23.68;42.10;98889.25;5071164;28;42806;-82
2023/04/29 08:48:48;;;;;;;2.40;2.30;;;;;;;23.99;42.23;98898.16;5037548;28;41655;-81
2023/04/29 08:51:17;;;;;;;2.80;2.27;;;;;;;24.40;42.15;98891.63;5054015;28;39859;-83
2023/04/29 08:53:45;;;;;;;2.20;1.90;;;;;;;24.52;42.03;98904.53;5072268;28;41836;-80
2023/04/29 08:56:19;;;;;;;2.50;2.30;;;;;;;24.40;41.97;98900.59;5053204;28;41671;-80
2023/04/29 08:58:48;;;;;;;2.47;2.27;;;;;;;23.91;40.95;98878.44;5054030;28;40974;-81
2023/04/29 09:01:16;;;;;;;3.27;2.10;;;;;;;23.64;41.34;98894.16;5053321;28;40119;-79
2023/04/29 09:03:51;;;;;;;2.10;1.90;;;;;;;23.40;42.49;98896.97;5053686;28;41885;-81
2023/04/29 09:06:20;;;;;;;2.33;2.13;;;;;;;23.02;42.56;98890.53;5052732;28;43430;-82
2023/04/29 09:08:48;;;;;;;2.57;2.37;;;;;;;22.80;43.24;98904.78;5054222;28;41068;-79
2023/04/29 09:11:17;;;;;;;2.30;2.10;;;;;;;22.54;42.97;98910.38;5053552;28;40758;-81
2023/04/29 09:13:45;;;;;;;4.73;2.07;;;;;;;22.37;43.31;98904.16;5070711;28;42507;-80
2023/04/29 09:16:13;;;;;;;3.03;2.20;;;;;;;22.23;43.03;98904.84;5053508;28;41712;-80
2023/04/29 09:18:53;;;;;;;2.73;2.53;;;;;;;22.34;43.03;98898.25;5149761;27;21104;-80
2023/04/29 09:21:22;;;;;;;2.70;2.50;;;;;;;23.03;42.07;98911.13;5149084;27;39767;-80
2023/04/29 09:23:52;;;;;;;2.63;2.43;;;;;;;24.37;42.26;98917.19;5148511;27;41000;-81
2023/04/29 09:26:21;;;;;;;2.77;2.27;;;;;;;24.85;40.29;98931.31;5149425;27;42951;-81
2023/04/29 09:29:08;;;;;;;4.03;2.93;;;;;;;24.58;40.36;98936.31;5148517;27;41055;-81
2023/04/29 09:31:38;;;;;;;2.83;2.63;;;;;;;24.37;39.77;98933.41;5130997;27;38645;-80
2023/04/29 09:34:07;;;;;;;3.27;2.60;;;;;;;23.97;40.87;98932.69;5149243;27;41771;-82
2023/04/29 09:36:44;;;;;;;2.20;2.10;;;;;;;23.48;41.67;98928.56;5130760;27;42053;-79
2023/04/29 09:39:15;;;;;;;2.30;2.10;;;;;;;22.85;42.40;98907.84;5146299;27;41863;-80
2023/04/29 09:41:59;;;;;;;1.77;1.67;;;;;;;22.43;43.52;98918.81;5148474;27;39818;-81
2023/04/29 09:44:28;;;;;;;2.37;2.17;;;;;;;21.80;44.15;98879.81;5145528;27;42302;-82
2023/04/29 09:46:57;;;;;;;4.03;2.37;;;;;;;21.72;45.23;98912.16;5148820;27;42748;-81
2023/04/29 09:49:28;;;;;;;3.23;2.67;;;;;;;21.43;45.69;98909.88;5148253;27;42252;-80
2023/04/29 09:51:58;;;;;;;3.77;2.73;;;;;;;21.16;45.61;98923.53;5147122;27;40163;-80
2023/04/29 09:54:27;;;;;;;4.23;2.47;;;;;;;20.96;45.33;98927.47;5147836;27;41698;-81
2023/04/29 09:56:57;;;;;;;2.67;2.47;;;;;;;20.83;45.96;98927.06;5147487;27;43356;-81
2023/04/29 09:59:25;;;;;;;3.03;2.77;;;;;;;20.83;46.96;98919.84;5130875;27;41534;-82
2023/04/29 10:01:54;;;;;;;2.93;2.70;;;;;;;20.77;46.35;98917.78;5149073;27;40650;-79
2023/04/29 10:04:24;;;;;;;2.63;2.43;;;;;;;20.66;47.02;98931.50;5130298;27;42134;-81
2023/04/29 10:06:55;;;;;;;2.60;2.40;;;;;;;20.55;46.39;98923.69;5147766;27;42501;-83
2023/04/29 10:09:24;;;;;;;2.43;2.23;;;;;;;20.40;46.22;98926.94;5144719;27;42080;-81
2023/04/29 10:11:52;;;;;;;2.67;2.47;;;;;;;20.26;47.00;98923.94;5149022;27;40632;-81
2023/04/29 10:14:23;;;;;;;2.67;2.47;;;;;;;20.13;47.03;98929.72;5148926;27;42380;-82
2023/04/29 10:16:59;;;;;;;3.57;2.30;;;;;;;20.15;47.54;98914.28;5148298;27;42437;-79
2023/04/29 10:19:34;;;;;;;2.57;2.20;;;;;;;20.35;47.19;98918.50;5147665;27;41616;-79
2023/04/29 10:22:09;;;;;;;2.03;1.90;;;;;;;20.65;47.08;98914.50;5145420;27;39915;-80
2023/04/29 10:24:37;;;;;;;2.30;2.10;;;;;;;20.82;46.57;98925.38;5145678;27;42506;-80
2023/04/29 10:27:07;;;;;;;2.10;2.00;;;;;;;20.98;46.21;98926.31;5147525;27;42960;-79
2023/04/29 10:29:37;;;;;;;1.90;1.80;;;;;;;21.08;44.97;98931.59;5119633;27;42117;-81
2023/04/29 10:32:09;;;;;;;2.43;2.23;;;;;;;21.10;44.62;98918.81;5133484;27;39835;-81
2023/04/29 10:34:39;;;;;;;1.90;1.80;;;;;;;21.08;45.15;98910.88;5133899;27;40761;-82
2023/04/29 10:37:09;;;;;;;1.70;1.60;;;;;;;21.21;45.75;98931.16;5116020;27;41333;-80
2023/04/29 10:39:44;;;;;;;2.00;1.80;;;;;;;21.08;44.67;98937.81;5133803;27;42032;-80
2023/04/29 10:42:21;;;;;;;1.60;1.50;;;;;;;20.82;44.77;98909.22;5116514;27;39693;-80
2023/04/29 10:45:25;;;;;;;2.20;2.00;;;;;;;20.83;44.85;98927.91;5131820;27;42388;-81
2023/04/29 10:48:17;;;;;;;2.17;1.97;;;;;;;20.88;45.45;98930.97;5134169;27;42894;-84
2023/04/29 10:51:13;;;;;;;2.20;1.87;;;;;;;21.12;45.29;98938.34;5130548;27;42424;-81
2023/04/29 10:54:03;;;;;;;2.87;2.00;;;;;;;21.45;44.91;98940.19;5116248;27;39078;-80
2023/04/29 10:56:53;;;;;;;2.17;1.90;;;;;;;21.65;43.35;98946.16;5116173;27;40601;-83
2023/04/29 10:59:22;;;;;;;1.70;1.60;;;;;;;21.75;43.75;98938.78;5129090;27;43032;-82
2023/04/29 11:01:51;;;;;;;2.10;1.90;;;;;;;21.71;44.37;98928.50;5133092;27;41066;-83
2023/04/29 11:04:19;;;;;;;2.30;2.10;;;;;;;21.76;44.59;98943.16;5116218;27;38869;-81
2023/04/29 11:06:51;;;;;;;2.07;1.90;;;;;;;21.77;44.45;98954.78;5115919;27;41040;-81
2023/04/29 11:09:22;;;;;;;1.67;1.57;;;;;;;21.62;44.47;98943.81;5116471;27;41695;-80
2023/04/29 11:11:59;;;;;;;2.63;1.70;;;;;;;21.47;45.11;98948.13;5132827;27;41949;-81
2023/04/29 11:14:29;;;;;;;2.20;2.10;;;;;;;20.96;45.18;98904.09;5131234;27;40888;-80
2023/04/29 11:16:59;;;;;;;3.37;2.00;;;;;;;21.22;45.73;98932.88;5133695;27;41539;-79
2023/04/29 11:19:32;;;;;;;1.77;1.67;;;;;;;21.48;45.32;98939.03;5115629;27;44012;-82
2023/04/29 11:22:24;;;;;;;1.60;1.50;;;;;;;22.04;44.57;98946.44;5133132;27;42296;-81
2023/04/29 11:24:55;;;;;;;2.33;1.37;;;;;;;22.77;43.37;98954.56;5130954;27;39660;-81
2023/04/29 11:27:25;;;;;;;1.80;1.70;;;;;;;23.15;42.26;98947.56;5132871;27;40977;-81
2023/04/29 11:29:58;;;;;;;2.37;1.70;;;;;;;23.51;41.56;98964.19;5132949;27;41870;-81
2023/04/29 11:32:27;;;;;;;1.70;1.37;;;;;;;23.61;40.88;98969.41;5130919;27;42269;-82
2023/04/29 11:34:55;;;;;;;1.47;1.37;;;;;;;23.71;40.14;98977.31;5133708;27;40297;-80
2023/04/29 11:37:25;;;;;;;1.60;1.50;;;;;;;23.64;39.78;98985.25;5132459;27;40794;-81
2023/04/29 11:39:59;;;;;;;1.60;1.50;;;;;;;23.52;40.67;98979.41;5114776;27;42817;-80
2023/04/29 11:42:27;;;;;;;1.30;1.20;;;;;;;23.31;40.80;98975.56;5131693;27;42346;-79
2023/04/29 11:44:59;;;;;;;1.93;1.70;;;;;;;22.98;41.15;98994.56;5132693;27;39906;-79
2023/04/29 11:47:28;;;;;;;1.80;1.70;;;;;;;22.64;41.81;98980.38;5132059;27;43120;-79
2023/04/29 11:50:03;;;;;;;2.10;1.90;;;;;;;22.35;42.25;98980.91;5132351;27;42790;-82
2023/04/29 11:52:31;;;;;;;2.47;2.13;;;;;;;21.95;43.18;98989.72;5131617;27;43468;-83